Terminal Aerodrome Forecast
Issued by NWS Upton, NY

Home | Current Version | Previous Version | Text Only | Print | Product List | Glossary On
Versions: 1 2 3 4 5 6 7 8 9 10 11 12 13 14 15 16 17 18 19 20 21 22 23 24 25 26 27 28 29 30 31 32 33 34 35 36 37 38 39 40 41 42 43 44 45 46 47 48 49 50
000
FTUS41 KOKX 221931 AAA
TAFEWR
TAF AMD
KEWR 221931Z 2220/2324 10011KT P6SM -DZ OVC007
      TEMPO 2220/2222 3SM -RA BR OVC007
     FM230000 10010KT 5SM -RA BR OVC008
      TEMPO 2301/2304 2SM BR OVC003
     FM230400 16010KT 4SM -RA BR OVC006
     FM230700 34008KT 4SM -RA BR OVC006
     FM230900 30010KT 5SM BR BKN025 OVC035
     FM231400 28014G20KT P6SM FEW250
     FM232200 27014KT P6SM FEW250=

USA.gov is the U.S. government's official web portal to all federal, state and local government web resources and services.